^^
Station Historical Data
Daily Summary for December 26, 2017 Units:  Both    English   Metric
« Previous Day
Next Day »
Daily Weekly Monthly Yearly Custom
  High: Low: Average:
Temperature: TemperatureF °F /  -17.8 °C 69.8 °F /  21 °C 81.2 °F /  27.3 °C
Dew Point: DewpointF °F /  -17.8 °C 21.6 °F /  -5.8 °C 31.5 °F /  -0.3 °C
Humidity: Humidity% 10% 17%
Wind Speed: WindSpeedMPHmph /  0km/h - 2.5mph /  4km/h
Wind Gust: WindSpeedGustMPHmph /  0km/h - -
Wind- - ESE
Pressure: PressureIn in /  0 hPa 30.04 in /  1017.2 hPa -
Precipitation: 0.00 in /  0 mm    
Historical Graphs
 
 
Tabular Data for December 26, 2017
Time Temperature Dew Point Pressure Wind Wind Speed Wind Gust Humidity Rainfall Rate (Hourly) solar Conditions
TemperatureF °F /  -17.8 °C DewpointF °F /  -17.8 °C PressureInin /  0hPa Calm     Humidity% HourlyPrecipInin /  0mm SolarRadiationWatts/m^2 W/m2 Conditions
00:00 75.4 °F /  24.1 °C 32.7 °F /  0.4 °C 30.16in /  1021.2hPa SE 0.9mph /  1.4km/h 6.0mph /  9.7km/h 21% 0.00in /  0mm 0.0 W/m2
00:06 75.6 °F /  24.2 °C 32.9 °F /  0.5 °C 30.16in /  1021.2hPa East 4.0mph /  6.4km/h 6.0mph /  9.7km/h 21% 0.00in /  0mm 0.0 W/m2
00:11 75.7 °F /  24.3 °C 31.8 °F /  -0.1 °C 30.15in /  1020.9hPa SE 6.0mph /  9.7km/h 12.0mph /  19.3km/h 20% 0.00in /  0mm 0.0 W/m2
00:16 75.7 °F /  24.3 °C 31.8 °F /  -0.1 °C 30.15in /  1020.9hPa SE 2.9mph /  4.7km/h 8.0mph /  12.9km/h 20% 0.00in /  0mm 0.0 W/m2
00:21 75.7 °F /  24.3 °C 31.8 °F /  -0.1 °C 30.15in /  1020.9hPa SSE 4.9mph /  7.9km/h 12.0mph /  19.3km/h 20% 0.00in /  0mm 0.0 W/m2
00:26 75.9 °F /  24.4 °C 32.0 °F /  0 °C 30.14in /  1020.5hPa SE 6.0mph /  9.7km/h 11.0mph /  17.7km/h 20% 0.00in /  0mm 0.0 W/m2
00:32 75.9 °F /  24.4 °C 30.7 °F /  -0.7 °C 30.14in /  1020.5hPa SE 8.1mph /  13km/h 9.0mph /  14.5km/h 19% 0.00in /  0mm 0.0 W/m2
00:37 75.9 °F /  24.4 °C 30.7 °F /  -0.7 °C 30.14in /  1020.5hPa SE 4.0mph /  6.4km/h 13.0mph /  20.9km/h 19% 0.00in /  0mm 0.0 W/m2
00:39 75.9 °F /  24.4 °C 30.7 °F /  -0.7 °C 30.14in /  1020.5hPa South 4.0mph /  6.4km/h 19.0mph /  30.6km/h 19% 0.00in /  0mm 0.0 W/m2
00:45 75.9 °F /  24.4 °C 30.7 °F /  -0.7 °C 30.14in /  1020.5hPa SE 4.0mph /  6.4km/h 10.0mph /  16.1km/h 19% 0.00in /  0mm 0.0 W/m2
00:50 75.7 °F /  24.3 °C 30.6 °F /  -0.8 °C 30.14in /  1020.5hPa SSE 2.9mph /  4.7km/h 10.0mph /  16.1km/h 19% 0.00in /  0mm 0.0 W/m2
00:55 75.7 °F /  24.3 °C 30.6 °F /  -0.8 °C 30.14in /  1020.5hPa ESE 8.1mph /  13km/h 13.0mph /  20.9km/h 19% 0.00in /  0mm 0.0 W/m2
01:00 75.7 °F /  24.3 °C 30.6 °F /  -0.8 °C 30.14in /  1020.5hPa SE 6.9mph /  11.1km/h 21.0mph /  33.8km/h 19% 0.00in /  0mm 0.0 W/m2
01:05 75.7 °F /  24.3 °C 30.6 °F /  -0.8 °C 30.13in /  1020.2hPa ESE 6.9mph /  11.1km/h 11.0mph /  17.7km/h 19% 0.00in /  0mm 0.0 W/m2
01:10 75.6 °F /  24.2 °C 29.1 °F /  -1.6 °C 30.13in /  1020.2hPa ESE 6.9mph /  11.1km/h 15.0mph /  24.1km/h 18% 0.00in /  0mm 0.0 W/m2
01:15 75.6 °F /  24.2 °C 29.1 °F /  -1.6 °C 30.13in /  1020.2hPa SE 4.9mph /  7.9km/h 14.0mph /  22.5km/h 18% 0.00in /  0mm 0.0 W/m2
01:18 75.6 °F /  24.2 °C 29.1 °F /  -1.6 °C 30.13in /  1020.2hPa ESE 6.0mph /  9.7km/h 14.0mph /  22.5km/h 18% 0.00in /  0mm 0.0 W/m2
01:23 75.4 °F /  24.1 °C 28.9 °F /  -1.7 °C 30.13in /  1020.2hPa ENE 6.9mph /  11.1km/h 15.0mph /  24.1km/h 18% 0.00in /  0mm 0.0 W/m2
01:29 75.2 °F /  24 °C 28.8 °F /  -1.8 °C 30.13in /  1020.2hPa ESE 0.9mph /  1.4km/h 9.0mph /  14.5km/h 18% 0.00in /  0mm 0.0 W/m2
01:34 74.8 °F /  23.8 °C 28.4 °F /  -2 °C 30.13in /  1020.2hPa East 6.9mph /  11.1km/h 8.0mph /  12.9km/h 18% 0.00in /  0mm 0.0 W/m2
01:39 74.7 °F /  23.7 °C 29.7 °F /  -1.3 °C 30.13in /  1020.2hPa Calm   2.0mph /  3.2km/h 19% 0.00in /  0mm 0.0 W/m2
01:45 74.3 °F /  23.5 °C 29.3 °F /  -1.5 °C 30.13in /  1020.2hPa Calm   5.0mph /  8km/h 19% 0.00in /  0mm 0.0 W/m2
01:50 73.9 °F /  23.3 °C 29.1 °F /  -1.6 °C 30.13in /  1020.2hPa NNE 2.0mph /  3.2km/h 3.0mph /  4.8km/h 19% 0.00in /  0mm 0.0 W/m2
01:55 73.8 °F /  23.2 °C 28.9 °F /  -1.7 °C 30.13in /  1020.2hPa Calm   5.0mph /  8km/h 19% 0.00in /  0mm 0.0 W/m2
02:00 73.6 °F /  23.1 °C 28.8 °F /  -1.8 °C 30.12in /  1019.9hPa Calm   1.0mph /  1.6km/h 19% 0.00in /  0mm 0.0 W/m2
02:05 73.2 °F /  22.9 °C 29.7 °F /  -1.3 °C 30.12in /  1019.9hPa Calm   1.0mph /  1.6km/h 20% 0.00in /  0mm 0.0 W/m2
02:10 73.0 °F /  22.8 °C 29.7 °F /  -1.3 °C 30.12in /  1019.9hPa SSE 2.9mph /  4.7km/h 4.0mph /  6.4km/h 20% 0.00in /  0mm 0.0 W/m2
02:11 73.2 °F /  22.9 °C 29.7 °F /  -1.3 °C 30.12in /  1019.9hPa Calm     20% 0.00in /  0mm 0.0 W/m2
02:16 73.0 °F /  22.8 °C 28.4 °F /  -2 °C 30.12in /  1019.9hPa SE 0.9mph /  1.4km/h 3.0mph /  4.8km/h 19% 0.00in /  0mm 0.0 W/m2
02:21 73.0 °F /  22.8 °C 29.7 °F /  -1.3 °C 30.12in /  1019.9hPa Calm   1.0mph /  1.6km/h 20% 0.00in /  0mm 0.0 W/m2
02:25 73.0 °F /  22.8 °C 29.7 °F /  -1.3 °C 30.12in /  1019.9hPa SSE 6.0mph /  9.7km/h 7.0mph /  11.3km/h 20% 0.00in /  0mm 0.0 W/m2
02:30 73.0 °F /  22.8 °C 28.4 °F /  -2 °C 30.12in /  1019.9hPa NNE 2.9mph /  4.7km/h 5.0mph /  8km/h 19% 0.00in /  0mm 0.0 W/m2
02:35 73.0 °F /  22.8 °C 28.4 °F /  -2 °C 30.13in /  1020.2hPa NE 6.0mph /  9.7km/h 6.0mph /  9.7km/h 19% 0.00in /  0mm 0.0 W/m2
02:40 73.0 °F /  22.8 °C 27.0 °F /  -2.8 °C 30.13in /  1020.2hPa ENE 2.0mph /  3.2km/h 8.0mph /  12.9km/h 18% 0.00in /  0mm 0.0 W/m2
02:45 72.9 °F /  22.7 °C 27.0 °F /  -2.8 °C 30.13in /  1020.2hPa ENE 10.1mph /  16.3km/h 10.1mph /  16.3km/h 18% 0.00in /  0mm 0.0 W/m2
02:50 72.7 °F /  22.6 °C 26.8 °F /  -2.9 °C 30.13in /  1020.2hPa East 0.9mph /  1.4km/h 5.0mph /  8km/h 18% 0.00in /  0mm 0.0 W/m2
02:55 72.7 °F /  22.6 °C 28.0 °F /  -2.2 °C 30.13in /  1020.2hPa ESE 2.9mph /  4.7km/h 8.0mph /  12.9km/h 19% 0.00in /  0mm 0.0 W/m2
03:00 72.5 °F /  22.5 °C 26.6 °F /  -3 °C 30.12in /  1019.9hPa Calm   6.0mph /  9.7km/h 18% 0.00in /  0mm 0.0 W/m2
03:05 72.3 °F /  22.4 °C 27.7 °F /  -2.4 °C 30.13in /  1020.2hPa Calm   8.0mph /  12.9km/h 19% 0.00in /  0mm 0.0 W/m2
03:10 72.3 °F /  22.4 °C 27.7 °F /  -2.4 °C 30.12in /  1019.9hPa ESE 4.0mph /  6.4km/h 5.0mph /  8km/h 19% 0.00in /  0mm 0.0 W/m2
03:12 72.1 °F /  22.3 °C 26.2 °F /  -3.2 °C 30.13in /  1020.2hPa East 4.0mph /  6.4km/h 10.0mph /  16.1km/h 18% 0.00in /  0mm 0.0 W/m2
03:17 72.3 °F /  22.4 °C 26.4 °F /  -3.1 °C 30.13in /  1020.2hPa ESE 0.9mph /  1.4km/h 8.0mph /  12.9km/h 18% 0.00in /  0mm 0.0 W/m2
03:21 72.3 °F /  22.4 °C 26.4 °F /  -3.1 °C 30.13in /  1020.2hPa ESE 0.9mph /  1.4km/h 6.0mph /  9.7km/h 18% 0.00in /  0mm 0.0 W/m2
03:27 72.1 °F /  22.3 °C 26.2 °F /  -3.2 °C 30.13in /  1020.2hPa East 2.9mph /  4.7km/h 4.0mph /  6.4km/h 18% 0.00in /  0mm 0.0 W/m2
03:29 72.1 °F /  22.3 °C 26.2 °F /  -3.2 °C 30.13in /  1020.2hPa NE 0.9mph /  1.4km/h 4.0mph /  6.4km/h 18% 0.00in /  0mm 0.0 W/m2
03:34 72.0 °F /  22.2 °C 26.1 °F /  -3.3 °C 30.13in /  1020.2hPa SE 2.0mph /  3.2km/h 10.0mph /  16.1km/h 18% 0.00in /  0mm 0.0 W/m2
03:36 72.0 °F /  22.2 °C 26.1 °F /  -3.3 °C 30.13in /  1020.2hPa SE 8.1mph /  13km/h 8.1mph /  13km/h 18% 0.00in /  0mm 0.0 W/m2
03:41 71.8 °F /  22.1 °C 26.1 °F /  -3.3 °C 30.13in /  1020.2hPa East 2.0mph /  3.2km/h 5.0mph /  8km/h 18% 0.00in /  0mm 0.0 W/m2
03:46 71.6 °F /  22 °C 25.9 °F /  -3.4 °C 30.13in /  1020.2hPa ENE 6.0mph /  9.7km/h 8.0mph /  12.9km/h 18% 0.00in /  0mm 0.0 W/m2
03:51 71.4 °F /  21.9 °C 25.7 °F /  -3.5 °C 30.13in /  1020.2hPa ESE 2.9mph /  4.7km/h 6.0mph /  9.7km/h 18% 0.00in /  0mm 0.0 W/m2
03:56 71.2 °F /  21.8 °C 25.5 °F /  -3.6 °C 30.13in /  1020.2hPa ESE 2.9mph /  4.7km/h 8.0mph /  12.9km/h 18% 0.00in /  0mm 0.0 W/m2
03:57 71.2 °F /  21.8 °C 25.5 °F /  -3.6 °C 30.13in /  1020.2hPa ENE 4.9mph /  7.9km/h 7.0mph /  11.3km/h 18% 0.00in /  0mm 0.0 W/m2
04:02 71.1 °F /  21.7 °C 25.3 °F /  -3.7 °C 30.13in /  1020.2hPa East 6.0mph /  9.7km/h 6.0mph /  9.7km/h 18% 0.00in /  0mm 0.0 W/m2
04:07 71.1 °F /  21.7 °C 25.3 °F /  -3.7 °C 30.13in /  1020.2hPa SE 2.9mph /  4.7km/h 8.0mph /  12.9km/h 18% 0.00in /  0mm 0.0 W/m2
04:11 71.1 °F /  21.7 °C 25.3 °F /  -3.7 °C 30.13in /  1020.2hPa SE 4.0mph /  6.4km/h 7.0mph /  11.3km/h 18% 0.00in /  0mm 0.0 W/m2
04:16 71.1 °F /  21.7 °C 25.3 °F /  -3.7 °C 30.13in /  1020.2hPa Calm   6.0mph /  9.7km/h 18% 0.00in /  0mm 0.0 W/m2
04:21 71.1 °F /  21.7 °C 25.3 °F /  -3.7 °C 30.13in /  1020.2hPa Calm   2.0mph /  3.2km/h 18% 0.00in /  0mm 0.0 W/m2
04:26 70.9 °F /  21.6 °C 25.3 °F /  -3.7 °C 30.13in /  1020.2hPa Calm   3.0mph /  4.8km/h 18% 0.00in /  0mm 0.0 W/m2
04:28 70.7 °F /  21.5 °C 25.2 °F /  -3.8 °C 30.13in /  1020.2hPa ESE 0.9mph /  1.4km/h 3.0mph /  4.8km/h 18% 0.00in /  0mm 0.0 W/m2
04:33 70.5 °F /  21.4 °C 25.0 °F /  -3.9 °C 30.13in /  1020.2hPa Calm   3.0mph /  4.8km/h 18% 0.00in /  0mm 0.0 W/m2
04:39 70.2 °F /  21.2 °C 24.6 °F /  -4.1 °C 30.13in /  1020.2hPa Calm   4.0mph /  6.4km/h 18% 0.00in /  0mm 0.0 W/m2
04:44 70.2 °F /  21.2 °C 24.6 °F /  -4.1 °C 30.13in /  1020.2hPa East 4.9mph /  7.9km/h 9.0mph /  14.5km/h 18% 0.00in /  0mm 0.0 W/m2
04:48 70.2 °F /  21.2 °C 24.6 °F /  -4.1 °C 30.13in /  1020.2hPa Calm   3.0mph /  4.8km/h 18% 0.00in /  0mm 0.0 W/m2
04:53 70.2 °F /  21.2 °C 23.4 °F /  -4.8 °C 30.13in /  1020.2hPa East 2.9mph /  4.7km/h 9.0mph /  14.5km/h 17% 0.00in /  0mm 0.0 W/m2
04:58 70.2 °F /  21.2 °C 23.4 °F /  -4.8 °C 30.13in /  1020.2hPa SE 0.9mph /  1.4km/h 4.0mph /  6.4km/h 17% 0.00in /  0mm 0.0 W/m2
05:03 70.3 °F /  21.3 °C 23.5 °F /  -4.7 °C 30.13in /  1020.2hPa SSW 0.9mph /  1.4km/h 9.0mph /  14.5km/h 17% 0.00in /  0mm 0.0 W/m2
05:08 70.3 °F /  21.3 °C 23.5 °F /  -4.7 °C 30.14in /  1020.5hPa ESE 0.9mph /  1.4km/h 5.0mph /  8km/h 17% 0.00in /  0mm 0.0 W/m2
05:16 70.2 °F /  21.2 °C 23.4 °F /  -4.8 °C 30.14in /  1020.5hPa SE 2.0mph /  3.2km/h 6.0mph /  9.7km/h 17% 0.00in /  0mm 0.0 W/m2
05:21 70.2 °F /  21.2 °C 23.4 °F /  -4.8 °C 30.14in /  1020.5hPa East 2.0mph /  3.2km/h 11.0mph /  17.7km/h 17% 0.00in /  0mm 0.0 W/m2
05:23 70.2 °F /  21.2 °C 21.9 °F /  -5.6 °C 30.14in /  1020.5hPa Calm   12.0mph /  19.3km/h 16% 0.00in /  0mm 0.0 W/m2
05:28 70.2 °F /  21.2 °C 21.9 °F /  -5.6 °C 30.14in /  1020.5hPa ESE 2.0mph /  3.2km/h 6.0mph /  9.7km/h 16% 0.00in /  0mm 0.0 W/m2
05:31 70.2 °F /  21.2 °C 21.9 °F /  -5.6 °C 30.14in /  1020.5hPa SE 4.0mph /  6.4km/h 9.0mph /  14.5km/h 16% 0.00in /  0mm 0.0 W/m2
05:36 70.0 °F /  21.1 °C 21.7 °F /  -5.7 °C 30.14in /  1020.5hPa Calm   5.0mph /  8km/h 16% 0.00in /  0mm 0.0 W/m2
05:37 70.0 °F /  21.1 °C 23.2 °F /  -4.9 °C 30.14in /  1020.5hPa SE 2.0mph /  3.2km/h 7.0mph /  11.3km/h 17% 0.00in /  0mm 0.0 W/m2
05:42 70.0 °F /  21.1 °C 21.7 °F /  -5.7 °C 30.14in /  1020.5hPa East 2.9mph /  4.7km/h 6.0mph /  9.7km/h 16% 0.00in /  0mm 0.0 W/m2
05:43 70.0 °F /  21.1 °C 21.7 °F /  -5.7 °C 30.14in /  1020.5hPa ESE 2.9mph /  4.7km/h 4.0mph /  6.4km/h 16% 0.00in /  0mm 0.0 W/m2
05:48 69.8 °F /  21 °C 21.6 °F /  -5.8 °C 30.14in /  1020.5hPa SE 2.9mph /  4.7km/h 7.0mph /  11.3km/h 16% 0.00in /  0mm 0.0 W/m2
05:50 70.0 °F /  21.1 °C 21.7 °F /  -5.7 °C 30.14in /  1020.5hPa ESE 2.9mph /  4.7km/h 12.0mph /  19.3km/h 16% 0.00in /  0mm 0.0 W/m2
05:55 70.0 °F /  21.1 °C 21.7 °F /  -5.7 °C 30.14in /  1020.5hPa ESE 6.9mph /  11.1km/h 8.0mph /  12.9km/h 16% 0.00in /  0mm 0.0 W/m2
06:00 70.0 °F /  21.1 °C 21.7 °F /  -5.7 °C 30.14in /  1020.5hPa Calm   9.0mph /  14.5km/h 16% 0.00in /  0mm 0.0 W/m2
06:05 70.2 °F /  21.2 °C 21.9 °F /  -5.6 °C 30.14in /  1020.5hPa ESE 2.0mph /  3.2km/h 6.0mph /  9.7km/h 16% 0.00in /  0mm 0.0 W/m2
06:06 70.2 °F /  21.2 °C 23.4 °F /  -4.8 °C 30.14in /  1020.5hPa ESE 2.0mph /  3.2km/h 6.0mph /  9.7km/h 17% 0.00in /  0mm 0.0 W/m2
06:11 70.2 °F /  21.2 °C 23.4 °F /  -4.8 °C 30.14in /  1020.5hPa SE 4.0mph /  6.4km/h 7.0mph /  11.3km/h 17% 0.00in /  0mm 7.0 W/m2
06:17 70.2 °F /  21.2 °C 23.4 °F /  -4.8 °C 30.15in /  1020.9hPa ESE 2.0mph /  3.2km/h 9.0mph /  14.5km/h 17% 0.00in /  0mm 9.0 W/m2
06:22 70.2 °F /  21.2 °C 23.4 °F /  -4.8 °C 30.15in /  1020.9hPa SE 4.0mph /  6.4km/h 9.0mph /  14.5km/h 17% 0.00in /  0mm 12.0 W/m2
06:27 70.2 °F /  21.2 °C 23.4 °F /  -4.8 °C 30.16in /  1021.2hPa ESE 0.9mph /  1.4km/h 6.0mph /  9.7km/h 17% 0.00in /  0mm 19.0 W/m2
06:32 70.2 °F /  21.2 °C 24.6 °F /  -4.1 °C 30.16in /  1021.2hPa Calm     18% 0.00in /  0mm 19.0 W/m2
06:37 70.0 °F /  21.1 °C 23.2 °F /  -4.9 °C 30.16in /  1021.2hPa SE 8.9mph /  14.3km/h 16.0mph /  25.7km/h 17% 0.00in /  0mm 18.0 W/m2
06:42 70.2 °F /  21.2 °C 23.4 °F /  -4.8 °C 30.16in /  1021.2hPa ESE 8.1mph /  13km/h 15.0mph /  24.1km/h 17% 0.00in /  0mm 19.0 W/m2
06:47 70.2 °F /  21.2 °C 23.4 °F /  -4.8 °C 30.16in /  1021.2hPa ESE 4.9mph /  7.9km/h 8.0mph /  12.9km/h 17% 0.00in /  0mm 19.0 W/m2
06:52 70.2 °F /  21.2 °C 23.4 °F /  -4.8 °C 30.17in /  1021.6hPa ENE 8.9mph /  14.3km/h 9.0mph /  14.5km/h 17% 0.00in /  0mm 19.0 W/m2
06:55 70.3 °F /  21.3 °C 23.5 °F /  -4.7 °C 30.17in /  1021.6hPa ENE 4.0mph /  6.4km/h 12.0mph /  19.3km/h 17% 0.00in /  0mm 21.0 W/m2
07:01 70.3 °F /  21.3 °C 23.5 °F /  -4.7 °C 30.17in /  1021.6hPa ESE 2.9mph /  4.7km/h 15.0mph /  24.1km/h 17% 0.00in /  0mm 21.0 W/m2
07:06 70.5 °F /  21.4 °C 23.5 °F /  -4.7 °C 30.17in /  1021.6hPa ENE 2.0mph /  3.2km/h 10.0mph /  16.1km/h 17% 0.00in /  0mm 23.0 W/m2
07:11 70.5 °F /  21.4 °C 25.0 °F /  -3.9 °C 30.17in /  1021.6hPa ESE 0.9mph /  1.4km/h 7.0mph /  11.3km/h 18% 0.00in /  0mm 23.0 W/m2
07:19 70.9 °F /  21.6 °C 23.9 °F /  -4.5 °C 30.17in /  1021.6hPa SE 0.9mph /  1.4km/h 11.0mph /  17.7km/h 17% 0.00in /  0mm 25.0 W/m2
07:22 70.9 °F /  21.6 °C 23.9 °F /  -4.5 °C 30.17in /  1021.6hPa East 2.9mph /  4.7km/h 11.0mph /  17.7km/h 17% 0.00in /  0mm 25.0 W/m2
07:28 71.2 °F /  21.8 °C 24.3 °F /  -4.3 °C 30.17in /  1021.6hPa SSE 2.9mph /  4.7km/h 12.0mph /  19.3km/h 17% 0.00in /  0mm 26.0 W/m2
07:33 71.4 °F /  21.9 °C 24.3 °F /  -4.3 °C 30.18in /  1021.9hPa SE 8.9mph /  14.3km/h 14.0mph /  22.5km/h 17% 0.00in /  0mm 28.0 W/m2
07:37 71.8 °F /  22.1 °C 26.1 °F /  -3.3 °C 30.18in /  1021.9hPa ENE 0.9mph /  1.4km/h 3.0mph /  4.8km/h 18% 0.00in /  0mm 30.0 W/m2
07:42 72.1 °F /  22.3 °C 25.0 °F /  -3.9 °C 30.18in /  1021.9hPa ESE 0.9mph /  1.4km/h 4.0mph /  6.4km/h 17% 0.00in /  0mm 137.0 W/m2
07:47 72.3 °F /  22.4 °C 26.4 °F /  -3.1 °C 30.18in /  1021.9hPa East 0.9mph /  1.4km/h 6.0mph /  9.7km/h 18% 0.00in /  0mm 352.0 W/m2
07:52 72.9 °F /  22.7 °C 25.5 °F /  -3.6 °C 30.18in /  1021.9hPa SE 4.0mph /  6.4km/h 8.0mph /  12.9km/h 17% 0.00in /  0mm 380.0 W/m2
07:58 73.2 °F /  22.9 °C 27.1 °F /  -2.7 °C 30.18in /  1021.9hPa East 2.9mph /  4.7km/h 5.0mph /  8km/h 18% 0.00in /  0mm 399.0 W/m2
08:01 73.8 °F /  23.2 °C 26.2 °F /  -3.2 °C 30.18in /  1021.9hPa SSE 0.9mph /  1.4km/h 8.0mph /  12.9km/h 17% 0.00in /  0mm 413.0 W/m2
08:06 74.1 °F /  23.4 °C 27.9 °F /  -2.3 °C 30.18in /  1021.9hPa NNE 6.0mph /  9.7km/h 6.0mph /  9.7km/h 18% 0.00in /  0mm 429.0 W/m2
08:11 74.7 °F /  23.7 °C 27.0 °F /  -2.8 °C 30.18in /  1021.9hPa Calm   2.0mph /  3.2km/h 17% 0.00in /  0mm 452.0 W/m2
08:17 75.4 °F /  24.1 °C 27.5 °F /  -2.5 °C 30.18in /  1021.9hPa Calm   7.0mph /  11.3km/h 17% 0.00in /  0mm 478.0 W/m2
08:22 75.9 °F /  24.4 °C 26.4 °F /  -3.1 °C 30.18in /  1021.9hPa SSE 4.0mph /  6.4km/h 7.0mph /  11.3km/h 16% 0.00in /  0mm 497.0 W/m2
08:27 76.3 °F /  24.6 °C 28.2 °F /  -2.1 °C 30.18in /  1021.9hPa Calm   3.0mph /  4.8km/h 17% 0.00in /  0mm 517.0 W/m2
08:32 76.6 °F /  24.8 °C 28.6 °F /  -1.9 °C 30.18in /  1021.9hPa SSE 0.9mph /  1.4km/h 8.0mph /  12.9km/h 17% 0.00in /  0mm 538.0 W/m2
08:33 76.8 °F /  24.9 °C 27.1 °F /  -2.7 °C 30.18in /  1021.9hPa ESE 0.9mph /  1.4km/h 7.0mph /  11.3km/h 16% 0.00in /  0mm 540.0 W/m2
08:39 77.4 °F /  25.2 °C 29.1 °F /  -1.6 °C 30.18in /  1021.9hPa ESE 8.9mph /  14.3km/h 9.0mph /  14.5km/h 17% 0.00in /  0mm 563.0 W/m2
08:45 77.5 °F /  25.3 °C 27.9 °F /  -2.3 °C 30.18in /  1021.9hPa ESE 4.9mph /  7.9km/h 8.0mph /  12.9km/h 16% 0.00in /  0mm 582.0 W/m2
08:50 78.1 °F /  25.6 °C 28.2 °F /  -2.1 °C 30.18in /  1021.9hPa NE 2.9mph /  4.7km/h 8.0mph /  12.9km/h 16% 0.00in /  0mm 601.0 W/m2
08:55 78.6 °F /  25.9 °C 28.8 °F /  -1.8 °C 30.18in /  1021.9hPa SE 2.0mph /  3.2km/h 5.0mph /  8km/h 16% 0.00in /  0mm 621.0 W/m2
08:58 79.0 °F /  26.1 °C 28.9 °F /  -1.7 °C 30.19in /  1022.2hPa NE 2.9mph /  4.7km/h 10.0mph /  16.1km/h 16% 0.00in /  0mm 633.0 W/m2
09:03 79.0 °F /  26.1 °C 28.9 °F /  -1.7 °C 30.18in /  1021.9hPa NE 4.9mph /  7.9km/h 6.0mph /  9.7km/h 16% 0.00in /  0mm 649.0 W/m2
09:08 79.2 °F /  26.2 °C 30.6 °F /  -0.8 °C 30.18in /  1021.9hPa East 11.0mph /  17.7km/h 11.0mph /  17.7km/h 17% 0.00in /  0mm 668.0 W/m2
09:13 79.3 °F /  26.3 °C 29.3 °F /  -1.5 °C 30.18in /  1021.9hPa NE 4.0mph /  6.4km/h 12.0mph /  19.3km/h 16% 0.00in /  0mm 682.0 W/m2
09:18 79.7 °F /  26.5 °C 29.5 °F /  -1.4 °C 30.18in /  1021.9hPa ENE 4.9mph /  7.9km/h 6.0mph /  9.7km/h 16% 0.00in /  0mm 701.0 W/m2
09:23 79.9 °F /  26.6 °C 29.7 °F /  -1.3 °C 30.18in /  1021.9hPa East 2.9mph /  4.7km/h 7.0mph /  11.3km/h 16% 0.00in /  0mm 717.0 W/m2
09:28 80.2 °F /  26.8 °C 30.0 °F /  -1.1 °C 30.18in /  1021.9hPa SE 4.0mph /  6.4km/h 9.0mph /  14.5km/h 16% 0.00in /  0mm 735.0 W/m2
09:34 80.6 °F /  27 °C 28.8 °F /  -1.8 °C 30.18in /  1021.9hPa NE 4.0mph /  6.4km/h 6.0mph /  9.7km/h 15% 0.00in /  0mm 751.0 W/m2
09:39 81.0 °F /  27.2 °C 32.0 °F /  0 °C 30.18in /  1021.9hPa East 6.0mph /  9.7km/h 8.0mph /  12.9km/h 17% 0.00in /  0mm 768.0 W/m2
09:41 81.0 °F /  27.2 °C 30.6 °F /  -0.8 °C 30.18in /  1021.9hPa ENE 0.9mph /  1.4km/h 8.0mph /  12.9km/h 16% 0.00in /  0mm 775.0 W/m2
09:46 81.3 °F /  27.4 °C 30.9 °F /  -0.6 °C 30.18in /  1021.9hPa ESE 4.0mph /  6.4km/h 9.0mph /  14.5km/h 16% 0.00in /  0mm 793.0 W/m2
09:51 81.1 °F /  27.3 °C 30.7 °F /  -0.7 °C 30.18in /  1021.9hPa ESE 4.0mph /  6.4km/h 10.0mph /  16.1km/h 16% 0.00in /  0mm 805.0 W/m2
09:56 81.3 °F /  27.4 °C 30.9 °F /  -0.6 °C 30.18in /  1021.9hPa Calm   9.0mph /  14.5km/h 16% 0.00in /  0mm 821.0 W/m2
10:01 81.5 °F /  27.5 °C 30.9 °F /  -0.6 °C 30.18in /  1021.9hPa ESE 2.9mph /  4.7km/h 8.0mph /  12.9km/h 16% 0.00in /  0mm 837.0 W/m2
10:02 81.7 °F /  27.6 °C 31.1 °F /  -0.5 °C 30.18in /  1021.9hPa East 2.0mph /  3.2km/h 6.0mph /  9.7km/h 16% 0.00in /  0mm 838.0 W/m2
10:08 82.2 °F /  27.9 °C 31.6 °F /  -0.2 °C 30.18in /  1021.9hPa NE 2.9mph /  4.7km/h 10.0mph /  16.1km/h 16% 0.00in /  0mm 856.0 W/m2
10:11 82.6 °F /  28.1 °C 31.8 °F /  -0.1 °C 30.18in /  1021.9hPa NNW 0.9mph /  1.4km/h 9.0mph /  14.5km/h 16% 0.00in /  0mm 865.0 W/m2
10:16 82.9 °F /  28.3 °C 32.2 °F /  0.1 °C 30.18in /  1021.9hPa NNE 2.0mph /  3.2km/h 7.0mph /  11.3km/h 16% 0.00in /  0mm 881.0 W/m2
10:21 83.5 °F /  28.6 °C 32.5 °F /  0.3 °C 30.18in /  1021.9hPa SE 11.0mph /  17.7km/h 12.0mph /  19.3km/h 16% 0.00in /  0mm 889.0 W/m2
10:26 83.7 °F /  28.7 °C 31.1 °F /  -0.5 °C 30.18in /  1021.9hPa ENE 4.9mph /  7.9km/h 5.0mph /  8km/h 15% 0.00in /  0mm 900.0 W/m2
10:27 83.7 °F /  28.7 °C 31.1 °F /  -0.5 °C 30.18in /  1021.9hPa NE 2.9mph /  4.7km/h 8.0mph /  12.9km/h 15% 0.00in /  0mm 904.0 W/m2
10:32 84.2 °F /  29 °C 34.7 °F /  1.5 °C 30.18in /  1021.9hPa SSE 6.9mph /  11.1km/h 13.0mph /  20.9km/h 17% 0.00in /  0mm 918.0 W/m2
10:37 84.6 °F /  29.2 °C 34.9 °F /  1.6 °C 30.18in /  1021.9hPa NE 4.9mph /  7.9km/h 7.0mph /  11.3km/h 17% 0.00in /  0mm 928.0 W/m2
10:42 84.7 °F /  29.3 °C 33.6 °F /  0.9 °C 30.18in /  1021.9hPa ENE 2.9mph /  4.7km/h 14.0mph /  22.5km/h 16% 0.00in /  0mm 942.0 W/m2
10:47 84.7 °F /  29.3 °C 33.6 °F /  0.9 °C 30.17in /  1021.6hPa North 6.9mph /  11.1km/h 10.0mph /  16.1km/h 16% 0.00in /  0mm 951.0 W/m2
10:49 84.7 °F /  29.3 °C 35.1 °F /  1.7 °C 30.18in /  1021.9hPa SSE 6.0mph /  9.7km/h 13.0mph /  20.9km/h 17% 0.00in /  0mm 956.0 W/m2
11:00 84.7 °F /  29.3 °C 33.6 °F /  0.9 °C 30.18in /  1021.9hPa NE 6.9mph /  11.1km/h 10.0mph /  16.1km/h 16% 0.00in /  0mm 979.0 W/m2
11:06 84.9 °F /  29.4 °C 35.2 °F /  1.8 °C 30.18in /  1021.9hPa NNE 4.9mph /  7.9km/h 13.0mph /  20.9km/h 17% 0.00in /  0mm 988.0 W/m2
11:11 84.9 °F /  29.4 °C 35.2 °F /  1.8 °C 30.17in /  1021.6hPa ENE 4.0mph /  6.4km/h 12.0mph /  19.3km/h 17% 0.00in /  0mm 997.0 W/m2
11:16 85.3 °F /  29.6 °C 35.6 °F /  2 °C 30.18in /  1021.9hPa NE 6.0mph /  9.7km/h 13.0mph /  20.9km/h 17% 0.00in /  0mm 1004.0 W/m2
11:21 85.3 °F /  29.6 °C 35.6 °F /  2 °C 30.18in /  1021.9hPa NNE 6.9mph /  11.1km/h 9.0mph /  14.5km/h 17% 0.00in /  0mm 1014.0 W/m2
11:26 85.5 °F /  29.7 °C 37.0 °F /  2.8 °C 30.17in /  1021.6hPa SE 2.9mph /  4.7km/h 10.0mph /  16.1km/h 18% 0.00in /  0mm 1020.0 W/m2
11:27 85.5 °F /  29.7 °C 37.0 °F /  2.8 °C 30.17in /  1021.6hPa ESE 6.9mph /  11.1km/h 12.0mph /  19.3km/h 18% 0.00in /  0mm 1023.0 W/m2
11:32 85.5 °F /  29.7 °C 37.0 °F /  2.8 °C 30.17in /  1021.6hPa NE 4.0mph /  6.4km/h 6.0mph /  9.7km/h 18% 0.00in /  0mm 1028.0 W/m2
11:37 86.0 °F /  30 °C 36.1 °F /  2.3 °C 30.18in /  1021.9hPa ESE 0.9mph /  1.4km/h 8.0mph /  12.9km/h 17% 0.00in /  0mm 1035.0 W/m2
11:42 86.5 °F /  30.3 °C 37.9 °F /  3.3 °C 30.17in /  1021.6hPa NE 6.9mph /  11.1km/h 9.0mph /  14.5km/h 18% 0.00in /  0mm 1042.0 W/m2
11:47 87.1 °F /  30.6 °C 37.0 °F /  2.8 °C 30.17in /  1021.6hPa NW 4.0mph /  6.4km/h 5.0mph /  8km/h 17% 0.00in /  0mm 1048.0 W/m2
11:51 87.3 °F /  30.7 °C 37.2 °F /  2.9 °C 30.17in /  1021.6hPa ENE 8.9mph /  14.3km/h 11.0mph /  17.7km/h 17% 0.00in /  0mm 1051.0 W/m2
11:58 87.6 °F /  30.9 °C 37.4 °F /  3 °C 30.17in /  1021.6hPa ENE 8.1mph /  13km/h 10.0mph /  16.1km/h 17% 0.00in /  0mm 1056.0 W/m2
12:03 87.4 °F /  30.8 °C 35.8 °F /  2.1 °C 30.16in /  1021.2hPa NE 4.0mph /  6.4km/h 12.0mph /  19.3km/h 16% 0.00in /  0mm 1062.0 W/m2
12:08 87.6 °F /  30.9 °C 37.4 °F /  3 °C 30.17in /  1021.6hPa ENE 10.1mph /  16.3km/h 10.1mph /  16.3km/h 17% 0.00in /  0mm 1065.0 W/m2
12:13 88.0 °F /  31.1 °C 37.8 °F /  3.2 °C 30.17in /  1021.6hPa ENE 2.9mph /  4.7km/h 13.0mph /  20.9km/h 17% 0.00in /  0mm 1067.0 W/m2
12:14 88.0 °F /  31.1 °C 36.1 °F /  2.3 °C 30.16in /  1021.2hPa NNE 4.9mph /  7.9km/h 12.0mph /  19.3km/h 16% 0.00in /  0mm 1067.0 W/m2
12:19 88.0 °F /  31.1 °C 39.2 °F /  4 °C 30.16in /  1021.2hPa ESE 6.0mph /  9.7km/h 9.0mph /  14.5km/h 18% 0.00in /  0mm 1071.0 W/m2
12:20 88.0 °F /  31.1 °C 39.2 °F /  4 °C 30.16in /  1021.2hPa NE 4.0mph /  6.4km/h 9.0mph /  14.5km/h 18% 0.00in /  0mm 1071.0 W/m2
12:30 89.2 °F /  31.8 °C 37.2 °F /  2.9 °C 30.16in /  1021.2hPa East 4.9mph /  7.9km/h 12.0mph /  19.3km/h 16% 0.00in /  0mm 1076.0 W/m2
12:35 89.2 °F /  31.8 °C 37.2 °F /  2.9 °C 30.16in /  1021.2hPa North 2.9mph /  4.7km/h 8.0mph /  12.9km/h 16% 0.00in /  0mm 1074.0 W/m2
12:40 89.4 °F /  31.9 °C 37.4 °F /  3 °C 30.15in /  1020.9hPa NNE 2.9mph /  4.7km/h 7.0mph /  11.3km/h 16% 0.00in /  0mm 1079.0 W/m2
12:42 89.4 °F /  31.9 °C 35.6 °F /  2 °C 30.15in /  1020.9hPa Calm   7.0mph /  11.3km/h 15% 0.00in /  0mm 1079.0 W/m2
12:47 89.8 °F /  32.1 °C 36.0 °F /  2.2 °C 30.15in /  1020.9hPa NE 2.9mph /  4.7km/h 11.0mph /  17.7km/h 15% 0.00in /  0mm 1067.0 W/m2
12:52 90.0 °F /  32.2 °C 37.8 °F /  3.2 °C 30.14in /  1020.5hPa East 4.9mph /  7.9km/h 12.0mph /  19.3km/h 16% 0.00in /  0mm 1063.0 W/m2
12:57 90.3 °F /  32.4 °C 36.3 °F /  2.4 °C 30.14in /  1020.5hPa NNE 0.9mph /  1.4km/h 6.0mph /  9.7km/h 15% 0.00in /  0mm 1063.0 W/m2
12:58 90.3 °F /  32.4 °C 36.3 °F /  2.4 °C 30.14in /  1020.5hPa East 2.0mph /  3.2km/h 8.0mph /  12.9km/h 15% 0.00in /  0mm 1065.0 W/m2
13:03 90.3 °F /  32.4 °C 38.1 °F /  3.4 °C 30.13in /  1020.2hPa SSE 2.9mph /  4.7km/h 10.0mph /  16.1km/h 16% 0.00in /  0mm 1069.0 W/m2
13:05 90.3 °F /  32.4 °C 38.1 °F /  3.4 °C 30.13in /  1020.2hPa SE 4.9mph /  7.9km/h 10.0mph /  16.1km/h 16% 0.00in /  0mm 1072.0 W/m2
13:10 90.5 °F /  32.5 °C 36.5 °F /  2.5 °C 30.13in /  1020.2hPa SE 8.1mph /  13km/h 8.1mph /  13km/h 15% 0.00in /  0mm 1069.0 W/m2
13:15 90.1 °F /  32.3 °C 36.3 °F /  2.4 °C 30.13in /  1020.2hPa SSW 6.0mph /  9.7km/h 9.0mph /  14.5km/h 15% 0.00in /  0mm 1062.0 W/m2
13:20 90.1 °F /  32.3 °C 36.3 °F /  2.4 °C 30.13in /  1020.2hPa NNE 6.0mph /  9.7km/h 10.0mph /  16.1km/h 15% 0.00in /  0mm 1065.0 W/m2
13:25 90.7 °F /  32.6 °C 36.7 °F /  2.6 °C 30.12in /  1019.9hPa NNE 0.9mph /  1.4km/h 6.0mph /  9.7km/h 15% 0.00in /  0mm 1065.0 W/m2
13:30 91.2 °F /  32.9 °C 35.4 °F /  1.9 °C 30.12in /  1019.9hPa NE 0.9mph /  1.4km/h 5.0mph /  8km/h 14% 0.00in /  0mm 1063.0 W/m2
13:34 91.6 °F /  33.1 °C 37.4 °F /  3 °C 30.12in /  1019.9hPa ESE 2.9mph /  4.7km/h 9.0mph /  14.5km/h 15% 0.00in /  0mm 1058.0 W/m2
13:40 91.9 °F /  33.3 °C 37.8 °F /  3.2 °C 30.12in /  1019.9hPa ESE 0.9mph /  1.4km/h 4.0mph /  6.4km/h 15% 0.00in /  0mm 1055.0 W/m2
13:45 91.9 °F /  33.3 °C 37.8 °F /  3.2 °C 30.12in /  1019.9hPa ESE 8.1mph /  13km/h 8.1mph /  13km/h 15% 0.00in /  0mm 1048.0 W/m2
13:50 91.9 °F /  33.3 °C 36.0 °F /  2.2 °C 30.12in /  1019.9hPa NE 4.0mph /  6.4km/h 7.0mph /  11.3km/h 14% 0.00in /  0mm 1044.0 W/m2
13:55 91.6 °F /  33.1 °C 35.6 °F /  2 °C 30.11in /  1019.5hPa South 4.0mph /  6.4km/h 8.0mph /  12.9km/h 14% 0.00in /  0mm 1039.0 W/m2
14:00 91.2 °F /  32.9 °C 35.4 °F /  1.9 °C 30.11in /  1019.5hPa SSE 4.9mph /  7.9km/h 6.0mph /  9.7km/h 14% 0.00in /  0mm 1034.0 W/m2
14:01 91.2 °F /  32.9 °C 35.4 °F /  1.9 °C 30.11in /  1019.5hPa SE 6.0mph /  9.7km/h 10.0mph /  16.1km/h 14% 0.00in /  0mm 1032.0 W/m2
14:02 91.2 °F /  32.9 °C 35.4 °F /  1.9 °C 30.11in /  1019.5hPa South 2.9mph /  4.7km/h 10.0mph /  16.1km/h 14% 0.00in /  0mm 1030.0 W/m2
14:08 91.8 °F /  33.2 °C 35.8 °F /  2.1 °C 30.11in /  1019.5hPa East 2.9mph /  4.7km/h 11.0mph /  17.7km/h 14% 0.00in /  0mm 1020.0 W/m2
14:13 92.3 °F /  33.5 °C 36.1 °F /  2.3 °C 30.11in /  1019.5hPa SE 2.0mph /  3.2km/h 7.0mph /  11.3km/h 14% 0.00in /  0mm 1014.0 W/m2
14:18 92.5 °F /  33.6 °C 34.5 °F /  1.4 °C 30.11in /  1019.5hPa NE 4.0mph /  6.4km/h 5.0mph /  8km/h 13% 0.00in /  0mm 1005.0 W/m2
14:20 92.7 °F /  33.7 °C 36.5 °F /  2.5 °C 30.11in /  1019.5hPa ESE 2.9mph /  4.7km/h 5.0mph /  8km/h 14% 0.00in /  0mm 1002.0 W/m2
14:25 93.4 °F /  34.1 °C 35.2 °F /  1.8 °C 30.10in /  1019.2hPa North 2.0mph /  3.2km/h 9.0mph /  14.5km/h 13% 0.00in /  0mm 995.0 W/m2
14:30 93.2 °F /  34 °C 33.1 °F /  0.6 °C 30.10in /  1019.2hPa Calm   9.0mph /  14.5km/h 12% 0.00in /  0mm 983.0 W/m2
14:36 93.0 °F /  33.9 °C 34.9 °F /  1.6 °C 30.10in /  1019.2hPa North 2.9mph /  4.7km/h 4.0mph /  6.4km/h 13% 0.00in /  0mm 976.0 W/m2
14:41 92.8 °F /  33.8 °C 32.7 °F /  0.4 °C 30.09in /  1018.8hPa ENE 4.0mph /  6.4km/h 6.0mph /  9.7km/h 12% 0.00in /  0mm 965.0 W/m2
14:46 93.0 °F /  33.9 °C 34.9 °F /  1.6 °C 30.10in /  1019.2hPa NW 2.0mph /  3.2km/h 7.0mph /  11.3km/h 13% 0.00in /  0mm 958.0 W/m2
14:51 93.6 °F /  34.2 °C 35.4 °F /  1.9 °C 30.09in /  1018.8hPa Calm   2.0mph /  3.2km/h 13% 0.00in /  0mm 947.0 W/m2
14:56 93.6 °F /  34.2 °C 37.2 °F /  2.9 °C 30.09in /  1018.8hPa Calm   2.0mph /  3.2km/h 14% 0.00in /  0mm 933.0 W/m2
15:01 93.6 °F /  34.2 °C 35.4 °F /  1.9 °C 30.08in /  1018.5hPa NNW 2.9mph /  4.7km/h 6.0mph /  9.7km/h 13% 0.00in /  0mm 925.0 W/m2
15:06 93.7 °F /  34.3 °C 35.4 °F /  1.9 °C 30.08in /  1018.5hPa West 2.9mph /  4.7km/h 8.0mph /  12.9km/h 13% 0.00in /  0mm 912.0 W/m2
15:11 93.4 °F /  34.1 °C 35.2 °F /  1.8 °C 30.09in /  1018.8hPa SW 0.9mph /  1.4km/h 8.0mph /  12.9km/h 13% 0.00in /  0mm 898.0 W/m2
15:17 92.8 °F /  33.8 °C 34.7 °F /  1.5 °C 30.08in /  1018.5hPa Calm   5.0mph /  8km/h 13% 0.00in /  0mm 884.0 W/m2
15:22 93.0 °F /  33.9 °C 34.9 °F /  1.6 °C 30.09in /  1018.8hPa Calm   4.0mph /  6.4km/h 13% 0.00in /  0mm 874.0 W/m2
15:27 93.7 °F /  34.3 °C 33.4 °F /  0.8 °C 30.08in /  1018.5hPa NE 2.0mph /  3.2km/h 11.0mph /  17.7km/h 12% 0.00in /  0mm 858.0 W/m2
15:30 93.7 °F /  34.3 °C 33.4 °F /  0.8 °C 30.08in /  1018.5hPa Calm   7.0mph /  11.3km/h 12% 0.00in /  0mm 853.0 W/m2
15:36 94.5 °F /  34.7 °C 34.0 °F /  1.1 °C 30.08in /  1018.5hPa NE 8.1mph /  13km/h 10.0mph /  16.1km/h 12% 0.00in /  0mm 831.0 W/m2
15:41 93.9 °F /  34.4 °C 33.6 °F /  0.9 °C 30.08in /  1018.5hPa West 2.0mph /  3.2km/h 5.0mph /  8km/h 12% 0.00in /  0mm 817.0 W/m2
15:46 93.9 °F /  34.4 °C 33.6 °F /  0.9 °C 30.07in /  1018.2hPa NE 4.0mph /  6.4km/h 6.0mph /  9.7km/h 12% 0.00in /  0mm 802.0 W/m2
15:51 94.3 °F /  34.6 °C 33.8 °F /  1 °C 30.07in /  1018.2hPa ENE 4.0mph /  6.4km/h 4.0mph /  6.4km/h 12% 0.00in /  0mm 789.0 W/m2
15:56 94.3 °F /  34.6 °C 33.8 °F /  1 °C 30.07in /  1018.2hPa SSW 2.0mph /  3.2km/h 3.0mph /  4.8km/h 12% 0.00in /  0mm 772.0 W/m2
16:01 94.6 °F /  34.8 °C 34.2 °F /  1.2 °C 30.06in /  1017.8hPa NE 4.0mph /  6.4km/h 5.0mph /  8km/h 12% 0.00in /  0mm 761.0 W/m2
16:07 95.0 °F /  35 °C 32.2 °F /  0.1 °C 30.06in /  1017.8hPa Calm   5.0mph /  8km/h 11% 0.00in /  0mm 738.0 W/m2
16:09 94.8 °F /  34.9 °C 34.3 °F /  1.3 °C 30.06in /  1017.8hPa NNW 4.0mph /  6.4km/h 10.0mph /  16.1km/h 12% 0.00in /  0mm 733.0 W/m2
16:14 94.5 °F /  34.7 °C 34.0 °F /  1.1 °C 30.06in /  1017.8hPa Calm   4.0mph /  6.4km/h 12% 0.00in /  0mm 719.0 W/m2
16:19 94.1 °F /  34.5 °C 33.8 °F /  1 °C 30.06in /  1017.8hPa SSW 0.9mph /  1.4km/h 4.0mph /  6.4km/h 12% 0.00in /  0mm 701.0 W/m2
16:24 93.7 °F /  34.3 °C 33.4 °F /  0.8 °C 30.05in /  1017.5hPa NW 0.9mph /  1.4km/h 3.0mph /  4.8km/h 12% 0.00in /  0mm 682.0 W/m2
16:29 94.3 °F /  34.6 °C 31.6 °F /  -0.2 °C 30.05in /  1017.5hPa WNW 0.9mph /  1.4km/h 1.0mph /  1.6km/h 11% 0.00in /  0mm 664.0 W/m2
16:34 94.8 °F /  34.9 °C 29.8 °F /  -1.2 °C 30.05in /  1017.5hPa West 4.9mph /  7.9km/h 5.0mph /  8km/h 10% 0.00in /  0mm 647.0 W/m2
16:40 95.2 °F /  35.1 °C 32.4 °F /  0.2 °C 30.05in /  1017.5hPa WNW 0.9mph /  1.4km/h 6.0mph /  9.7km/h 11% 0.00in /  0mm 628.0 W/m2
16:46 94.8 °F /  34.9 °C 32.2 °F /  0.1 °C 30.05in /  1017.5hPa NNW 4.9mph /  7.9km/h 7.0mph /  11.3km/h 11% 0.00in /  0mm 608.0 W/m2
16:49 94.8 °F /  34.9 °C 32.2 °F /  0.1 °C 30.05in /  1017.5hPa West 2.9mph /  4.7km/h 8.0mph /  12.9km/h 11% 0.00in /  0mm 596.0 W/m2
16:54 94.8 °F /  34.9 °C 32.2 °F /  0.1 °C 30.05in /  1017.5hPa NE 4.9mph /  7.9km/h 9.0mph /  14.5km/h 11% 0.00in /  0mm 578.0 W/m2
16:59 94.6 °F /  34.8 °C 32.0 °F /  0 °C 30.05in /  1017.5hPa Calm   5.0mph /  8km/h 11% 0.00in /  0mm 563.0 W/m2
17:00 94.6 °F /  34.8 °C 32.0 °F /  0 °C 30.05in /  1017.5hPa North 6.0mph /  9.7km/h 8.0mph /  12.9km/h 11% 0.00in /  0mm 559.0 W/m2
17:05 94.6 °F /  34.8 °C 32.0 °F /  0 °C 30.04in /  1017.2hPa NW 0.9mph /  1.4km/h 4.0mph /  6.4km/h 11% 0.00in /  0mm 540.0 W/m2
17:10 95.0 °F /  35 °C 32.2 °F /  0.1 °C 30.04in /  1017.2hPa WSW 0.9mph /  1.4km/h 1.0mph /  1.6km/h 11% 0.00in /  0mm 519.0 W/m2
17:15 94.8 °F /  34.9 °C 32.2 °F /  0.1 °C 30.04in /  1017.2hPa SSW 0.9mph /  1.4km/h 4.0mph /  6.4km/h 11% 0.00in /  0mm 497.0 W/m2
17:20 94.8 °F /  34.9 °C 32.2 °F /  0.1 °C 30.04in /  1017.2hPa WSW 4.0mph /  6.4km/h 5.0mph /  8km/h 11% 0.00in /  0mm 480.0 W/m2
17:25 94.5 °F /  34.7 °C 31.8 °F /  -0.1 °C 30.04in /  1017.2hPa South 2.0mph /  3.2km/h 8.0mph /  12.9km/h 11% 0.00in /  0mm 462.0 W/m2
17:28 94.3 °F /  34.6 °C 33.8 °F /  1 °C 30.04in /  1017.2hPa WSW 4.9mph /  7.9km/h 5.0mph /  8km/h 12% 0.00in /  0mm 455.0 W/m2
17:33 94.1 °F /  34.5 °C 33.8 °F /  1 °C 30.04in /  1017.2hPa NW 6.0mph /  9.7km/h 7.0mph /  11.3km/h 12% 0.00in /  0mm 432.0 W/m2
17:38 94.1 °F /  34.5 °C 31.6 °F /  -0.2 °C 30.04in /  1017.2hPa NNE 4.9mph /  7.9km/h 6.0mph /  9.7km/h 11% 0.00in /  0mm 413.0 W/m2
17:41 93.7 °F /  34.3 °C 33.4 °F /  0.8 °C 30.04in /  1017.2hPa Calm   5.0mph /  8km/h 12% 0.00in /  0mm 403.0 W/m2
17:46 93.7 °F /  34.3 °C 33.4 °F /  0.8 °C 30.04in /  1017.2hPa West 4.9mph /  7.9km/h 7.0mph /  11.3km/h 12% 0.00in /  0mm 385.0 W/m2
17:51 93.6 °F /  34.2 °C 33.3 °F /  0.7 °C 30.04in /  1017.2hPa Calm   3.0mph /  4.8km/h 12% 0.00in /  0mm 125.0 W/m2
17:56 93.4 °F /  34.1 °C 33.3 °F /  0.7 °C 30.04in /  1017.2hPa Calm   1.0mph /  1.6km/h 12% 0.00in /  0mm 70.0 W/m2
18:01 93.0 °F /  33.9 °C 32.9 °F /  0.5 °C 30.04in /  1017.2hPa SW 0.9mph /  1.4km/h 1.0mph /  1.6km/h 12% 0.00in /  0mm 297.0 W/m2
18:03 93.0 °F /  33.9 °C 32.9 °F /  0.5 °C 30.04in /  1017.2hPa South 0.9mph /  1.4km/h 3.0mph /  4.8km/h 12% 0.00in /  0mm 88.0 W/m2
18:05 93.0 °F /  33.9 °C 32.9 °F /  0.5 °C 30.04in /  1017.2hPa Calm   1.0mph /  1.6km/h 12% 0.00in /  0mm 67.0 W/m2
18:10 92.8 °F /  33.8 °C 32.7 °F /  0.4 °C 30.04in /  1017.2hPa Calm   1.0mph /  1.6km/h 12% 0.00in /  0mm 44.0 W/m2
18:15 92.1 °F /  33.4 °C 34.2 °F /  1.2 °C 30.04in /  1017.2hPa Calm   3.0mph /  4.8km/h 13% 0.00in /  0mm 42.0 W/m2
18:21 91.4 °F /  33 °C 33.6 °F /  0.9 °C 30.04in /  1017.2hPa Calm   1.0mph /  1.6km/h 13% 0.00in /  0mm 42.0 W/m2
18:26 90.7 °F /  32.6 °C 33.1 °F /  0.6 °C 30.04in /  1017.2hPa Calm   3.0mph /  4.8km/h 13% 0.00in /  0mm 47.0 W/m2
18:31 90.1 °F /  32.3 °C 34.5 °F /  1.4 °C 30.04in /  1017.2hPa Calm   2.0mph /  3.2km/h 14% 0.00in /  0mm 142.0 W/m2
18:36 90.0 °F /  32.2 °C 34.3 °F /  1.3 °C 30.05in /  1017.5hPa Calm   1.0mph /  1.6km/h 14% 0.00in /  0mm 104.0 W/m2
18:41 90.0 °F /  32.2 °C 32.5 °F /  0.3 °C 30.05in /  1017.5hPa Calm   2.0mph /  3.2km/h 13% 0.00in /  0mm 62.0 W/m2
18:46 89.8 °F /  32.1 °C 34.2 °F /  1.2 °C 30.05in /  1017.5hPa Calm   3.0mph /  4.8km/h 14% 0.00in /  0mm 33.0 W/m2
18:51 89.6 °F /  32 °C 34.2 °F /  1.2 °C 30.05in /  1017.5hPa Calm   1.0mph /  1.6km/h 14% 0.00in /  0mm 33.0 W/m2
18:57 89.2 °F /  31.8 °C 35.6 °F /  2 °C 30.05in /  1017.5hPa Calm   1.0mph /  1.6km/h 15% 0.00in /  0mm 32.0 W/m2
19:02 89.1 °F /  31.7 °C 35.4 °F /  1.9 °C 30.05in /  1017.5hPa Calm   1.0mph /  1.6km/h 15% 0.00in /  0mm 32.0 W/m2
19:07 88.9 °F /  31.6 °C 33.6 °F /  0.9 °C 30.05in /  1017.5hPa Calm     14% 0.00in /  0mm 26.0 W/m2
19:09 88.9 °F /  31.6 °C 33.6 °F /  0.9 °C 30.05in /  1017.5hPa Calm     14% 0.00in /  0mm 26.0 W/m2
19:14 88.5 °F /  31.4 °C 35.1 °F /  1.7 °C 30.05in /  1017.5hPa Calm     15% 0.00in /  0mm 23.0 W/m2
19:17 88.5 °F /  31.4 °C 36.7 °F /  2.6 °C 30.05in /  1017.5hPa Calm     16% 0.00in /  0mm 18.0 W/m2
19:22 88.0 °F /  31.1 °C 37.8 °F /  3.2 °C 30.06in /  1017.8hPa Calm   1.0mph /  1.6km/h 17% 0.00in /  0mm 12.0 W/m2
19:27 87.6 °F /  30.9 °C 38.8 °F /  3.8 °C 30.06in /  1017.8hPa Calm   1.0mph /  1.6km/h 18% 0.00in /  0mm 9.0 W/m2
19:33 87.3 °F /  30.7 °C 39.9 °F /  4.4 °C 30.06in /  1017.8hPa Calm   1.0mph /  1.6km/h 19% 0.00in /  0mm 5.0 W/m2
19:38 86.7 °F /  30.4 °C 36.7 °F /  2.6 °C 30.06in /  1017.8hPa Calm   1.0mph /  1.6km/h 17% 0.00in /  0mm 0.0 W/m2
19:43 86.5 °F /  30.3 °C 37.9 °F /  3.3 °C 30.06in /  1017.8hPa Calm     18% 0.00in /  0mm 0.0 W/m2
19:48 86.0 °F /  30 °C 36.1 °F /  2.3 °C 30.07in /  1018.2hPa Calm   1.0mph /  1.6km/h 17% 0.00in /  0mm 0.0 W/m2
19:53 85.6 °F /  29.8 °C 37.2 °F /  2.9 °C 30.07in /  1018.2hPa Calm   1.0mph /  1.6km/h 18% 0.00in /  0mm 0.0 W/m2
19:58 85.3 °F /  29.6 °C 38.3 °F /  3.5 °C 30.07in /  1018.2hPa East 0.9mph /  1.4km/h 1.0mph /  1.6km/h 19% 0.00in /  0mm 0.0 W/m2
20:03 84.7 °F /  29.3 °C 36.5 °F /  2.5 °C 30.07in /  1018.2hPa Calm   2.0mph /  3.2km/h 18% 0.00in /  0mm 0.0 W/m2
20:08 84.2 °F /  29 °C 36.1 °F /  2.3 °C 30.07in /  1018.2hPa Calm   3.0mph /  4.8km/h 18% 0.00in /  0mm 0.0 W/m2
20:14 83.7 °F /  28.7 °C 35.6 °F /  2 °C 30.07in /  1018.2hPa Calm   1.0mph /  1.6km/h 18% 0.00in /  0mm 0.0 W/m2
20:19 83.5 °F /  28.6 °C 35.6 °F /  2 °C 30.07in /  1018.2hPa Calm   2.0mph /  3.2km/h 18% 0.00in /  0mm 0.0 W/m2
20:21 83.1 °F /  28.4 °C 35.2 °F /  1.8 °C 30.07in /  1018.2hPa East 0.9mph /  1.4km/h 1.0mph /  1.6km/h 18% 0.00in /  0mm 0.0 W/m2
20:26 82.9 °F /  28.3 °C 35.1 °F /  1.7 °C 30.08in /  1018.5hPa Calm   2.0mph /  3.2km/h 18% 0.00in /  0mm 0.0 W/m2
20:31 82.6 °F /  28.1 °C 34.7 °F /  1.5 °C 30.08in /  1018.5hPa East 0.9mph /  1.4km/h 1.0mph /  1.6km/h 18% 0.00in /  0mm 0.0 W/m2
20:36 82.2 °F /  27.9 °C 34.5 °F /  1.4 °C 30.08in /  1018.5hPa NE 2.0mph /  3.2km/h 3.0mph /  4.8km/h 18% 0.00in /  0mm 0.0 W/m2
20:41 81.9 °F /  27.7 °C 35.6 °F /  2 °C 30.08in /  1018.5hPa Calm     19% 0.00in /  0mm 0.0 W/m2
20:46 81.5 °F /  27.5 °C 35.2 °F /  1.8 °C 30.08in /  1018.5hPa Calm   1.0mph /  1.6km/h 19% 0.00in /  0mm 0.0 W/m2
20:52 81.1 °F /  27.3 °C 36.3 °F /  2.4 °C 30.08in /  1018.5hPa Calm     20% 0.00in /  0mm 0.0 W/m2
20:57 80.8 °F /  27.1 °C 36.0 °F /  2.2 °C 30.08in /  1018.5hPa Calm   1.0mph /  1.6km/h 20% 0.00in /  0mm 0.0 W/m2
21:03 80.4 °F /  26.9 °C 35.6 °F /  2 °C 30.08in /  1018.5hPa Calm   2.0mph /  3.2km/h 20% 0.00in /  0mm 0.0 W/m2
21:08 80.1 °F /  26.7 °C 35.4 °F /  1.9 °C 30.08in /  1018.5hPa Calm   2.0mph /  3.2km/h 20% 0.00in /  0mm 0.0 W/m2
21:13 79.7 °F /  26.5 °C 35.1 °F /  1.7 °C 30.08in /  1018.5hPa Calm   1.0mph /  1.6km/h 20% 0.00in /  0mm 0.0 W/m2
21:14 79.5 °F /  26.4 °C 34.9 °F /  1.6 °C 30.09in /  1018.8hPa Calm     20% 0.00in /  0mm 0.0 W/m2
21:20 79.3 °F /  26.3 °C 36.0 °F /  2.2 °C 30.09in /  1018.8hPa Calm     21% 0.00in /  0mm 0.0 W/m2
21:25 79.2 °F /  26.2 °C 34.7 °F /  1.5 °C 30.09in /  1018.8hPa Calm   5.0mph /  8km/h 20% 0.00in /  0mm 0.0 W/m2
21:30 79.0 °F /  26.1 °C 34.5 °F /  1.4 °C 30.09in /  1018.8hPa Calm   3.0mph /  4.8km/h 20% 0.00in /  0mm 0.0 W/m2
21:35 79.0 °F /  26.1 °C 34.5 °F /  1.4 °C 30.09in /  1018.8hPa East 0.9mph /  1.4km/h 3.0mph /  4.8km/h 20% 0.00in /  0mm 0.0 W/m2
21:40 79.0 °F /  26.1 °C 34.5 °F /  1.4 °C 30.09in /  1018.8hPa Calm   2.0mph /  3.2km/h 20% 0.00in /  0mm 0.0 W/m2
21:45 79.2 °F /  26.2 °C 34.7 °F /  1.5 °C 30.09in /  1018.8hPa Calm   1.0mph /  1.6km/h 20% 0.00in /  0mm 0.0 W/m2
21:51 79.2 °F /  26.2 °C 34.7 °F /  1.5 °C 30.10in /  1019.2hPa Calm   3.0mph /  4.8km/h 20% 0.00in /  0mm 0.0 W/m2
21:54 79.3 °F /  26.3 °C 33.4 °F /  0.8 °C 30.10in /  1019.2hPa Calm   2.0mph /  3.2km/h 19% 0.00in /  0mm 0.0 W/m2
21:59 79.3 °F /  26.3 °C 33.4 °F /  0.8 °C 30.10in /  1019.2hPa Calm     19% 0.00in /  0mm 0.0 W/m2
22:04 79.3 °F /  26.3 °C 34.7 °F /  1.5 °C 30.11in /  1019.5hPa Calm     20% 0.00in /  0mm 0.0 W/m2
22:06 79.3 °F /  26.3 °C 34.7 °F /  1.5 °C 30.11in /  1019.5hPa WNW 2.9mph /  4.7km/h 3.0mph /  4.8km/h 20% 0.00in /  0mm 0.0 W/m2
22:11 79.3 °F /  26.3 °C 36.0 °F /  2.2 °C 30.11in /  1019.5hPa Calm     21% 0.00in /  0mm 0.0 W/m2
22:17 79.3 °F /  26.3 °C 34.7 °F /  1.5 °C 30.11in /  1019.5hPa Calm   1.0mph /  1.6km/h 20% 0.00in /  0mm 0.0 W/m2
22:23 79.3 °F /  26.3 °C 33.4 °F /  0.8 °C 30.11in /  1019.5hPa Calm     19% 0.00in /  0mm 0.0 W/m2
22:28 79.3 °F /  26.3 °C 34.7 °F /  1.5 °C 30.12in /  1019.9hPa Calm     20% 0.00in /  0mm 0.0 W/m2
22:32 79.3 °F /  26.3 °C 36.0 °F /  2.2 °C 30.12in /  1019.9hPa Calm   1.0mph /  1.6km/h 21% 0.00in /  0mm 0.0 W/m2
22:37 79.2 °F /  26.2 °C 35.8 °F /  2.1 °C 30.12in /  1019.9hPa Calm   1.0mph /  1.6km/h 21% 0.00in /  0mm 0.0 W/m2
22:43 79.0 °F /  26.1 °C 35.8 °F /  2.1 °C 30.12in /  1019.9hPa Calm     21% 0.00in /  0mm 0.0 W/m2
22:48 78.8 °F /  26 °C 36.7 °F /  2.6 °C 30.12in /  1019.9hPa Calm     22% 0.00in /  0mm 0.0 W/m2
22:51 78.6 °F /  25.9 °C 36.7 °F /  2.6 °C 30.12in /  1019.9hPa Calm   1.0mph /  1.6km/h 22% 0.00in /  0mm 0.0 W/m2
22:56 78.4 °F /  25.8 °C 37.6 °F /  3.1 °C 30.12in /  1019.9hPa East 0.9mph /  1.4km/h 3.0mph /  4.8km/h 23% 0.00in /  0mm 0.0 W/m2
23:01 78.1 °F /  25.6 °C 37.2 °F /  2.9 °C 30.12in /  1019.9hPa Calm   2.0mph /  3.2km/h 23% 0.00in /  0mm 0.0 W/m2
23:07 77.7 °F /  25.4 °C 35.8 °F /  2.1 °C 30.13in /  1020.2hPa ESE 2.0mph /  3.2km/h 6.0mph /  9.7km/h 22% 0.00in /  0mm 0.0 W/m2
23:13 77.7 °F /  25.4 °C 34.7 °F /  1.5 °C 30.13in /  1020.2hPa Calm   1.0mph /  1.6km/h 21% 0.00in /  0mm 0.0 W/m2
23:18 77.7 °F /  25.4 °C 35.8 °F /  2.1 °C 30.13in /  1020.2hPa Calm     22% 0.00in /  0mm 0.0 W/m2
23:19 77.7 °F /  25.4 °C 35.8 °F /  2.1 °C 30.13in /  1020.2hPa Calm     22% 0.00in /  0mm 0.0 W/m2
23:24 77.7 °F /  25.4 °C 35.8 °F /  2.1 °C 30.13in /  1020.2hPa Calm     22% 0.00in /  0mm 0.0 W/m2
23:30 77.5 °F /  25.3 °C 36.9 °F /  2.7 °C 30.13in /  1020.2hPa SE 0.9mph /  1.4km/h 1.0mph /  1.6km/h 23% 0.00in /  0mm 0.0 W/m2
23:33 77.4 °F /  25.2 °C 36.7 °F /  2.6 °C 30.13in /  1020.2hPa Calm   1.0mph /  1.6km/h 23% 0.00in /  0mm 0.0 W/m2
23:38 77.2 °F /  25.1 °C 37.6 °F /  3.1 °C 30.13in /  1020.2hPa Calm   1.0mph /  1.6km/h 24% 0.00in /  0mm 0.0 W/m2
23:43 76.8 °F /  24.9 °C 37.2 °F /  2.9 °C 30.13in /  1020.2hPa East 2.0mph /  3.2km/h 2.0mph /  3.2km/h 24% 0.00in /  0mm 0.0 W/m2
23:48 76.5 °F /  24.7 °C 37.0 °F /  2.8 °C 30.13in /  1020.2hPa East 0.9mph /  1.4km/h 3.0mph /  4.8km/h 24% 0.00in /  0mm 0.0 W/m2
23:52 76.3 °F /  24.6 °C 36.9 °F /  2.7 °C 30.13in /  1020.2hPa Calm   3.0mph /  4.8km/h 24% 0.00in /  0mm 0.0 W/m2
23:57 75.9 °F /  24.4 °C 37.6 °F /  3.1 °C 30.13in /  1020.2hPa Calm   1.0mph /  1.6km/h 25% 0.00in /  0mm 0.0 W/m2
Olympia, Windhoek, Namibia
Compliments of Weather Underground - 3.5 mb